Nearby METAR Reports

 

KSJC - San Jose, California, USA
Distance from station: NO 14km
aktuell: 26/02/2021 09:53
klar
klar
 Wind von calm
Wind: Windstill
Temperatur: 8°C
Taupunkt: 1°C
Luftfeuchte: 62%
Luftdruck: 1023 hPa
Clouds: klar
Visibility: 16 km
2021/02/26 08:53 KSJC 260853Z AUTO 00000KT 10SM CLR 08/01 A3021 RMK AO2 SLP228 T00780011 50001 $
KNUQ - Moffett Nas/Mtn, California, USA
Distance from station: N 14km
aktuell: 26/02/2021 10:15
Few Clouds
Few Clouds
 Wind von calm
Wind: Windstill
Temperatur: 8°C
Taupunkt: 5°C
Luftfeuchte: 82%
Luftdruck: 1023 hPa
Clouds: Few Clouds
Visibility: 16 km
Cloud details: Few Clouds 91 m
2021/02/26 09:15 KNUQ 260915Z AUTO 00000KT 10SM FEW003 08/05 A3021 RMK AO2
KPAO - Palo Alto, California, USA
Distance from station: NNW 23km
aktuell: 26/02/2021 05:47
NOT Current

 
Visibility: 0 km
2021/02/26 04:47 KPAO 260447Z 0000KT 10SM SKC 10/04 A3020 RMK LAST
 
KRHV - San Jose/Reid, California, USA
Distance from station: ONO 19km
aktuell: 26/02/2021 06:47
NOT Current
klar
klar
 Wind von calm
Wind: Windstill
Temperatur: 10°C
Taupunkt: 0°C
Luftfeuchte: 50%
Luftdruck: 1022.7 hPa
Clouds: klar
Visibility: 16 km
2021/02/26 05:47 KRHV 260547Z 00000KT 10SM SKC 10/00 A3020 RMK LAST
KOAK - Oakland, California, USA
Distance from station: NNW 50km
aktuell: 26/02/2021 09:53
klar
klar
 Wind von NO
Wind: NO 9 km/h
Temperatur: 8°C
Wind Chill: 6°C
Taupunkt: 3°C
Luftfeuchte: 71%
Luftdruck: 1023.4 hPa
Clouds: klar
Visibility: 16 km
2021/02/26 08:53 KOAK 260853Z 04005KT 10SM CLR 08/03 A3022 RMK AO2 SLP232 T00830033 51001
KSQL - San Carlos Airpo, California, USA
Distance from station: NW 34km
aktuell: 26/02/2021 10:15
klar
klar
 Wind von calm
Wind: Windstill
Temperatur: 9°C
Taupunkt: 7°C
Luftfeuchte: 87%
Luftdruck: 1023.4 hPa
Clouds: klar
Visibility: 16 km
2021/02/26 09:15 KSQL 260915Z AUTO 00000KT 10SM CLR 09/07 A3022 RMK AO2
 
KSFO - San Francisco, California, USA
Distance from station: NW 49km
aktuell: 26/02/2021 09:56
klar
klar
 Wind von WNW
Wind: WNW 22 km/h
Temperatur: 11°C
Taupunkt: 7°C
Luftfeuchte: 77%
Luftdruck: 1022.7 hPa
Clouds: klar
Visibility: 16 km
2021/02/26 08:56 KSFO 260856Z 29012KT 10SM CLR 11/07 A3020 RMK AO2 SLP228 T01060067 58001
KE16 - San Martin, California, USA
Distance from station: OSO 43km
aktuell: 26/02/2021 10:15
teilweise bewölkt
teilweise bewölkt
 Wind von calm
Wind: Windstill
Temperatur: 4°C
Taupunkt: -2°C
Luftfeuchte: 65%
Luftdruck: 1023.4 hPa
Clouds: teilweise bewölkt
Visibility: 16 km
Cloud details: teilweise bewölkt 1829 m
2021/02/26 09:15 KE16 260915Z AUTO 00000KT 10SM SCT060 04/M02 A3022 RMK AO2
KWVI - Watsonville, California, USA
Distance from station: SSO 44km
aktuell: 26/02/2021 09:53
klar
klar
 Wind von NNW
Wind: NNW 6 km/h
Temperatur: 6°C
Taupunkt: 0°C
Luftfeuchte: 66%
Luftdruck: 1022.7 hPa
Clouds: klar
Visibility: 16 km
2021/02/26 08:53 KWVI 260853Z AUTO 34003KT 10SM CLR 06/00 A3020 RMK AO2 SLP227 T00560000 58001
 
KHAF - Half Moon Bay, California, USA
Distance from station: WNW 50km
aktuell: 26/02/2021 10:15
Mist, klar
Mist, klar
 Wind von NNW
Wind: NNW 13 km/h
Temperatur: 7°C
Wind Chill: 5°C
Taupunkt: 6°C
Luftfeuchte: 93%
Luftdruck: 1023.4 hPa
Zusammenfassung: Mist
Clouds: klar
Visibility: 6 km
2021/02/26 09:15 KHAF 260915Z AUTO 33007KT 4SM BR CLR 07/06 A3022 RMK AO2
KHWD - Hayward, California, USA
Distance from station: N 44km
aktuell: 26/02/2021 09:54
klar
klar
 Wind von ONO
Wind: ONO 9 km/h
Temperatur: 7°C
Wind Chill: 6°C
Taupunkt: 2°C
Luftfeuchte: 71%
Luftdruck: 1023 hPa
Clouds: klar
Visibility: 16 km
2021/02/26 08:54 KHWD 260854Z 07005KT 10SM CLR 07/02 A3021 RMK AO2 SLP239 T00720022 53001
KLVK - Livermore, California, USA
Distance from station: NNO 51km
aktuell: 26/02/2021 09:53
klar
klar
 Wind von calm
Wind: Windstill
Temperatur: 6°C
Taupunkt: -2°C
Luftfeuchte: 57%
Luftdruck: 1022.7 hPa
Clouds: klar
Visibility: 16 km
2021/02/26 08:53 KLVK 260853Z AUTO 00000KT 10SM CLR 06/M02 A3020 RMK AO2 SLP225 T00561017 50002